Terminal Aerodrome Forecast
Issued by NWS Cleveland, OH

Home | Current Version | Previous Version | Graphics & Text | Print | Product List | Glossary Off
Versions: 1 2 3 4 5 6 7 8 9 10 11 12 13 14

457
FTUS41 KCLE 260530
TAFYNG
TAF
KYNG 260530Z 2606/2706 24005KT P6SM SCT040 BKN100
     FM261400 26012G18KT P6SM BKN040 OVC080
     FM261600 26014G22KT P6SM VCSH OVC040=

USA.gov is the U.S. government's official web portal to all federal, state and local government web resources and services.